createdAt,value
2023-03-19T00:01:49.951Z,7.27
2023-03-19T00:04:17.199Z,7.37
2023-03-19T00:06:44.492Z,7.50
2023-03-19T00:09:11.899Z,6.63
2023-03-19T00:11:38.955Z,5.83
2023-03-19T00:14:06.601Z,5.53
2023-03-19T00:16:33.578Z,4.40
2023-03-19T00:19:01.020Z,3.87
2023-03-19T00:21:30.571Z,3.37
2023-03-19T00:24:01.008Z,3.60
2023-03-19T00:26:33.310Z,3.50
2023-03-19T00:29:00.978Z,4.43
2023-03-19T00:31:29.053Z,4.43
2023-03-19T00:33:59.785Z,5.07
2023-03-19T00:36:28.258Z,6.17
2023-03-19T00:38:57.578Z,6.37
2023-03-19T00:41:24.754Z,5.53
2023-03-19T00:43:56.575Z,5.40
2023-03-19T00:46:24.730Z,4.53
2023-03-19T00:48:55.285Z,4.40
2023-03-19T00:51:23.641Z,3.90
2023-03-19T00:53:51.611Z,3.30
2023-03-19T00:56:19.068Z,3.77
2023-03-19T00:58:47.274Z,4.07
2023-03-19T01:01:16.920Z,3.40
2023-03-19T01:03:45.262Z,3.40
2023-03-19T01:06:12.774Z,3.50
2023-03-19T01:08:39.665Z,2.57
2023-03-19T01:11:15.204Z,2.73
2023-03-19T01:13:42.329Z,3.27
2023-03-19T01:16:10.001Z,2.87
2023-03-19T01:18:36.948Z,3.00
2023-03-19T01:21:04.194Z,2.57
2023-03-19T01:23:32.364Z,2.67
2023-03-19T01:25:59.179Z,2.27
2023-03-19T01:28:27.362Z,3.67
2023-03-19T01:30:59.929Z,3.37
2023-03-19T01:33:47.594Z,4.07
2023-03-19T01:36:25.670Z,3.60
2023-03-19T01:39:04.309Z,4.07
2023-03-19T01:41:31.543Z,3.17
2023-03-19T01:44:30.646Z,3.00
2023-03-19T01:47:37.007Z,2.77
2023-03-19T01:50:45.731Z,2.60
2023-03-19T01:53:30.507Z,2.67
2023-03-19T01:56:24.469Z,3.20
2023-03-19T01:59:02.486Z,2.97
2023-03-19T02:01:58.259Z,3.10
2023-03-19T02:04:27.528Z,2.53
2023-03-19T02:07:00.745Z,3.20
2023-03-19T02:09:29.163Z,3.13
2023-03-19T02:11:57.098Z,2.77
2023-03-19T02:14:24.257Z,2.57
2023-03-19T02:16:52.441Z,2.60
2023-03-19T02:19:30.218Z,2.83
2023-03-19T02:21:58.040Z,2.23
2023-03-19T02:24:52.297Z,3.00
2023-03-19T02:27:20.899Z,2.50
2023-03-19T02:29:49.792Z,1.80
2023-03-19T02:32:16.942Z,3.33
2023-03-19T02:34:44.598Z,1.90
2023-03-19T02:37:21.164Z,2.33
2023-03-19T02:39:59.929Z,2.10
2023-03-19T02:42:29.078Z,2.77
2023-03-19T02:44:57.645Z,2.17
2023-03-19T02:47:26.079Z,2.27
2023-03-19T02:49:53.239Z,2.07
2023-03-19T02:52:20.450Z,2.00
2023-03-19T02:54:48.445Z,2.00
2023-03-19T02:57:15.184Z,2.70
2023-03-19T02:59:41.921Z,2.03
2023-03-19T03:02:10.143Z,1.87
2023-03-19T03:04:39.863Z,1.80
2023-03-19T03:07:07.384Z,2.13
2023-03-19T03:09:34.361Z,2.03
2023-03-19T03:12:01.541Z,2.13
2023-03-19T03:14:28.471Z,1.70
2023-03-19T03:16:57.282Z,2.40
2023-03-19T03:19:24.327Z,2.20
2023-03-19T03:21:51.141Z,1.97
2023-03-19T03:24:17.966Z,2.43
2023-03-19T03:26:44.735Z,2.37
2023-03-19T03:29:11.722Z,1.90
2023-03-19T03:31:38.553Z,2.27
2023-03-19T03:34:05.873Z,2.33
2023-03-19T03:36:32.615Z,2.30
2023-03-19T03:38:59.854Z,2.70
2023-03-19T03:41:26.655Z,1.93
2023-03-19T03:43:53.414Z,2.70
2023-03-19T03:46:20.285Z,2.80
2023-03-19T03:48:51.251Z,3.00
2023-03-19T03:51:19.189Z,3.53
2023-03-19T03:53:46.344Z,3.80
2023-03-19T03:56:13.609Z,3.10
2023-03-19T03:58:40.648Z,2.43
2023-03-19T04:01:08.840Z,1.93
2023-03-19T04:03:35.754Z,1.90
2023-03-19T04:06:02.596Z,1.90
2023-03-19T04:08:29.546Z,3.00
2023-03-19T04:10:56.300Z,7.10
2023-03-19T04:13:23.058Z,12.57
2023-03-19T04:15:50.372Z,7.73
2023-03-19T04:18:17.325Z,3.10
2023-03-19T04:20:44.085Z,2.90
2023-03-19T04:23:10.919Z,3.50
2023-03-19T04:25:41.161Z,9.07
2023-03-19T04:28:09.012Z,9.43
2023-03-19T04:30:36.159Z,2.47
2023-03-19T04:33:03.520Z,2.60
2023-03-19T04:35:30.867Z,2.67
2023-03-19T04:37:57.700Z,2.67
2023-03-19T04:40:25.062Z,2.67
2023-03-19T04:42:51.893Z,2.70
2023-03-19T04:45:31.260Z,2.23
2023-03-19T04:47:58.401Z,2.20
2023-03-19T04:50:25.625Z,1.83
2023-03-19T04:52:53.585Z,2.00
2023-03-19T04:55:20.644Z,2.27
2023-03-19T04:57:54.696Z,1.83
2023-03-19T05:00:26.234Z,2.00
2023-03-19T05:02:53.425Z,2.83
2023-03-19T05:05:20.204Z,1.90
2023-03-19T05:07:47.370Z,2.00
2023-03-19T05:10:14.828Z,1.90
2023-03-19T05:12:42.155Z,1.40
2023-03-19T05:15:10.044Z,1.83
2023-03-19T05:17:41.279Z,2.23
2023-03-19T05:20:34.729Z,3.10
2023-03-19T05:23:06.526Z,2.20
2023-03-19T05:25:47.666Z,2.73
2023-03-19T05:28:19.024Z,2.23
2023-03-19T05:30:46.761Z,2.73
2023-03-19T05:33:19.302Z,3.30
2023-03-19T05:35:47.024Z,2.70
2023-03-19T05:38:23.150Z,2.50
2023-03-19T05:41:03.020Z,2.10
2023-03-19T05:43:36.330Z,2.30
2023-03-19T05:46:06.715Z,2.13
2023-03-19T05:48:33.904Z,2.20
2023-03-19T05:51:02.879Z,2.63
2023-03-19T05:53:35.445Z,2.23
2023-03-19T05:56:22.478Z,2.30
2023-03-19T05:59:02.574Z,2.33
2023-03-19T06:01:35.963Z,2.07
2023-03-19T06:04:05.498Z,2.60
2023-03-19T06:06:32.938Z,2.63
2023-03-19T06:08:59.794Z,2.23
2023-03-19T06:11:34.214Z,2.03
2023-03-19T06:14:24.481Z,15.53
2023-03-19T06:17:11.260Z,4.80
2023-03-19T06:19:38.386Z,2.60
2023-03-19T06:22:07.604Z,2.53
2023-03-19T06:24:34.331Z,2.43
2023-03-19T06:27:01.586Z,2.30
2023-03-19T06:29:28.671Z,2.03
2023-03-19T06:32:02.636Z,2.60
2023-03-19T06:34:37.583Z,2.40
2023-03-19T06:37:05.162Z,2.63
2023-03-19T06:39:32.261Z,2.90
2023-03-19T06:41:58.972Z,2.17
2023-03-19T06:44:27.313Z,2.50
2023-03-19T06:46:54.098Z,2.57
2023-03-19T06:49:21.947Z,2.70
2023-03-19T06:51:48.765Z,2.40
2023-03-19T06:54:15.588Z,5.77
2023-03-19T06:56:42.336Z,5.37
2023-03-19T06:59:13.099Z,3.03
2023-03-19T07:01:42.965Z,3.37
2023-03-19T07:04:09.879Z,2.80
2023-03-19T07:06:36.656Z,2.90
2023-03-19T07:09:04.225Z,4.07
2023-03-19T07:11:33.158Z,7.30
2023-03-19T07:14:01.222Z,8.80
2023-03-19T07:16:27.995Z,9.30
2023-03-19T07:18:54.745Z,4.23
2023-03-19T07:21:21.610Z,3.03
2023-03-19T07:23:49.180Z,3.23
2023-03-19T07:26:16.442Z,2.90
2023-03-19T07:28:43.340Z,2.93
2023-03-19T07:31:10.521Z,3.03
2023-03-19T07:33:37.219Z,3.63
2023-03-19T07:36:04.190Z,2.90
2023-03-19T07:38:31.049Z,2.77
2023-03-19T07:41:02.407Z,3.40
2023-03-19T07:43:30.799Z,3.07
2023-03-19T07:45:58.525Z,3.60
2023-03-19T07:48:25.372Z,3.27
2023-03-19T07:50:52.306Z,3.60
2023-03-19T07:53:19.279Z,3.30
2023-03-19T07:55:47.012Z,3.73
2023-03-19T07:58:13.726Z,4.00
2023-03-19T08:00:40.991Z,3.30
2023-03-19T08:03:07.860Z,3.30
2023-03-19T08:05:34.591Z,3.93
2023-03-19T08:08:01.688Z,3.73
2023-03-19T08:10:28.468Z,4.40
2023-03-19T08:12:55.201Z,4.20
2023-03-19T08:15:22.122Z,4.83
2023-03-19T08:17:49.123Z,11.50
2023-03-19T08:20:16.846Z,4.80
2023-03-19T08:22:49.754Z,4.50
2023-03-19T08:25:16.584Z,4.37
2023-03-19T08:27:43.407Z,4.00
2023-03-19T08:30:11.206Z,4.60
2023-03-19T08:32:38.073Z,4.00
2023-03-19T08:35:06.086Z,4.30
2023-03-19T08:37:32.847Z,5.03
2023-03-19T08:39:59.793Z,7.90
2023-03-19T08:42:26.559Z,3.67
2023-03-19T08:44:53.320Z,6.33
2023-03-19T08:47:24.197Z,2.47
2023-03-19T08:49:51.901Z,2.50
2023-03-19T08:52:19.548Z,2.77
2023-03-19T08:54:46.342Z,1.73
2023-03-19T08:57:13.059Z,1.93
2023-03-19T08:59:39.755Z,1.93
2023-03-19T09:02:06.890Z,2.10
2023-03-19T09:04:38.895Z,2.13
2023-03-19T09:07:06.137Z,1.77
2023-03-19T09:09:33.598Z,1.67
2023-03-19T09:12:00.694Z,2.20
2023-03-19T09:14:27.786Z,1.90
2023-03-19T09:16:55.740Z,2.10
2023-03-19T09:19:23.617Z,2.37
2023-03-19T09:21:50.831Z,2.10
2023-03-19T09:24:18.848Z,2.07
2023-03-19T09:26:46.520Z,2.20
2023-03-19T09:29:13.740Z,2.10
2023-03-19T09:31:40.582Z,2.00
2023-03-19T09:34:08.737Z,2.00
2023-03-19T09:36:36.797Z,1.70
2023-03-19T09:39:05.313Z,2.33
2023-03-19T09:41:35.683Z,2.13
2023-03-19T09:44:04.319Z,1.70
2023-03-19T09:46:44.404Z,2.97
2023-03-19T09:49:21.049Z,2.90
2023-03-19T09:51:52.926Z,1.60
2023-03-19T09:54:37.261Z,1.63
2023-03-19T09:57:04.498Z,1.60
2023-03-19T09:59:31.499Z,1.93
2023-03-19T10:02:10.515Z,1.90
2023-03-19T10:04:59.210Z,1.60
2023-03-19T10:07:50.355Z,1.47
2023-03-19T10:10:45.653Z,1.50
2023-03-19T10:13:39.647Z,1.60
2023-03-19T10:16:14.494Z,1.60
2023-03-19T10:18:49.874Z,1.10
2023-03-19T10:21:24.996Z,1.43
2023-03-19T10:24:00.283Z,1.20
2023-03-19T10:26:34.508Z,1.30
2023-03-19T10:29:20.305Z,1.53
2023-03-19T10:31:56.180Z,1.30
2023-03-19T10:34:35.541Z,1.57
2023-03-19T10:37:20.543Z,1.70
2023-03-19T10:39:49.540Z,1.13
2023-03-19T10:42:34.714Z,1.80
2023-03-19T10:45:10.881Z,1.60
2023-03-19T10:47:43.118Z,1.63
2023-03-19T10:50:23.306Z,1.63
2023-03-19T10:52:52.599Z,1.70
2023-03-19T10:55:24.957Z,1.70
2023-03-19T10:58:03.501Z,1.70
2023-03-19T11:00:33.315Z,1.73
2023-03-19T11:03:01.994Z,1.90
2023-03-19T11:05:32.068Z,1.83
2023-03-19T11:08:05.182Z,2.00
2023-03-19T11:10:34.584Z,2.53
2023-03-19T11:13:22.264Z,2.00
2023-03-19T11:15:49.500Z,3.00
2023-03-19T11:18:19.364Z,2.33
2023-03-19T11:21:09.773Z,3.10
2023-03-19T11:23:42.931Z,3.17
2023-03-19T11:26:10.307Z,2.70
2023-03-19T11:28:37.432Z,2.53
2023-03-19T11:31:23.638Z,4.77
2023-03-19T11:34:05.121Z,4.43
2023-03-19T11:36:31.863Z,3.73
2023-03-19T11:39:12.772Z,3.50
2023-03-19T11:42:13.255Z,2.90
2023-03-19T11:45:17.508Z,3.30
2023-03-19T11:48:23.346Z,3.33
2023-03-19T11:51:01.319Z,2.70
2023-03-19T11:53:41.991Z,2.63
2023-03-19T11:56:21.723Z,2.00
2023-03-19T11:59:09.823Z,1.80
2023-03-19T12:02:02.254Z,2.30
2023-03-19T12:04:37.392Z,2.10
2023-03-19T12:07:32.754Z,2.50
2023-03-19T12:10:17.432Z,2.20
2023-03-19T12:13:02.644Z,1.97
2023-03-19T12:15:51.218Z,2.13
2023-03-19T12:18:52.405Z,2.10
2023-03-19T12:21:19.278Z,2.03
2023-03-19T12:24:03.963Z,2.07
2023-03-19T12:27:05.604Z,2.50
2023-03-19T12:29:59.425Z,2.00
2023-03-19T12:32:39.234Z,2.10
2023-03-19T12:35:13.040Z,2.00
2023-03-19T12:37:45.341Z,1.73
2023-03-19T12:40:36.929Z,1.90
2023-03-19T12:43:17.585Z,2.07
2023-03-19T12:45:59.861Z,2.07
2023-03-19T12:48:31.729Z,2.20
2023-03-19T12:51:05.398Z,2.33
2023-03-19T12:53:48.771Z,1.70
2023-03-19T12:56:27.099Z,2.20
2023-03-19T12:59:21.942Z,2.27
2023-03-19T13:01:53.457Z,3.80
2023-03-19T13:04:35.043Z,1.70
2023-03-19T13:07:07.380Z,1.87
2023-03-19T13:09:55.550Z,2.20
2023-03-19T13:12:31.906Z,2.30
2023-03-19T13:15:07.516Z,2.00
2023-03-19T13:17:37.561Z,1.70
2023-03-19T13:20:27.052Z,1.63
2023-03-19T13:22:59.423Z,2.10
2023-03-19T13:25:39.784Z,1.80
2023-03-19T13:28:28.705Z,1.70
2023-03-19T13:31:00.773Z,1.50
2023-03-19T13:33:28.922Z,1.30
2023-03-19T13:35:56.608Z,1.23
2023-03-19T13:38:30.458Z,1.50
2023-03-19T13:40:59.323Z,1.40
2023-03-19T13:43:29.224Z,1.33
2023-03-19T13:46:17.316Z,1.07
2023-03-19T13:48:46.837Z,1.23
2023-03-19T13:51:19.674Z,1.23
2023-03-19T13:54:14.795Z,1.80
2023-03-19T13:57:03.243Z,1.20
2023-03-19T13:59:32.076Z,1.17
2023-03-19T14:02:00.192Z,1.00
2023-03-19T14:04:30.748Z,3.87
2023-03-19T14:07:15.380Z,1.60
2023-03-19T14:09:46.242Z,0.90
2023-03-19T14:12:15.948Z,1.17
2023-03-19T14:14:47.083Z,0.90
2023-03-19T14:17:19.479Z,0.90
2023-03-19T14:19:46.927Z,0.90
2023-03-19T14:22:16.457Z,0.70
2023-03-19T14:24:57.785Z,0.90
2023-03-19T14:27:32.885Z,0.97
2023-03-19T14:30:09.386Z,0.97
2023-03-19T14:32:40.854Z,0.93
2023-03-19T14:35:11.835Z,0.70
2023-03-19T14:37:39.460Z,0.60
2023-03-19T14:40:27.261Z,0.60
2023-03-19T14:43:15.353Z,0.70
2023-03-19T14:45:57.530Z,0.87
2023-03-19T14:49:02.271Z,0.97
2023-03-19T14:51:55.853Z,0.90
2023-03-19T14:54:41.002Z,0.80
2023-03-19T14:57:14.956Z,0.70
2023-03-19T14:59:41.719Z,0.80
2023-03-19T15:02:38.861Z,0.87
2023-03-19T15:05:36.709Z,0.70
2023-03-19T15:08:06.979Z,0.67
2023-03-19T15:11:00.289Z,0.70
2023-03-19T15:13:26.986Z,0.80
2023-03-19T15:16:08.558Z,0.80
2023-03-19T15:18:36.856Z,0.80
2023-03-19T15:21:05.102Z,0.80
2023-03-19T15:23:32.416Z,0.90
2023-03-19T15:26:01.787Z,0.80
2023-03-19T15:28:38.457Z,0.80
2023-03-19T15:31:28.463Z,2.60
2023-03-19T15:33:53.818Z,1.23
2023-03-19T15:36:33.212Z,1.20
2023-03-19T15:39:05.247Z,1.00
2023-03-19T15:41:34.444Z,1.10
2023-03-19T15:44:04.340Z,0.90
2023-03-19T15:46:34.925Z,0.93
2023-03-19T15:49:10.398Z,1.00
2023-03-19T15:51:37.713Z,1.00
2023-03-19T15:54:05.047Z,0.87
2023-03-19T15:56:32.494Z,0.70
2023-03-19T15:59:00.168Z,0.90
2023-03-19T16:01:27.932Z,0.80
2023-03-19T16:04:05.598Z,0.80
2023-03-19T16:06:37.125Z,0.70
2023-03-19T16:09:15.683Z,0.70
2023-03-19T16:11:44.521Z,0.50
2023-03-19T16:14:14.231Z,0.50
2023-03-19T16:16:42.101Z,0.70
2023-03-19T16:19:32.193Z,0.50
2023-03-19T16:21:59.805Z,0.50
2023-03-19T16:24:37.827Z,0.70
2023-03-19T16:27:09.684Z,0.57
2023-03-19T16:29:41.669Z,0.40
2023-03-19T16:32:11.394Z,0.80
2023-03-19T16:34:50.348Z,0.30
2023-03-19T16:37:31.742Z,0.40
2023-03-19T16:40:21.546Z,0.40
2023-03-19T16:42:50.929Z,1.40
2023-03-19T16:45:19.478Z,1.10
2023-03-19T16:47:49.310Z,0.53
2023-03-19T16:50:17.670Z,0.47
2023-03-19T16:52:46.522Z,0.37
2023-03-19T16:55:21.826Z,0.63
2023-03-19T16:57:55.963Z,0.40
2023-03-19T17:00:24.607Z,0.23
2023-03-19T17:02:53.118Z,0.40
2023-03-19T17:05:19.830Z,0.30
2023-03-19T17:07:46.583Z,0.33
2023-03-19T17:10:18.961Z,0.20
2023-03-19T17:12:48.528Z,0.80
2023-03-19T17:15:42.187Z,0.70
2023-03-19T17:18:24.430Z,0.40
2023-03-19T17:21:03.035Z,0.40
2023-03-19T17:23:30.489Z,0.60
2023-03-19T17:25:57.582Z,0.60
2023-03-19T17:28:24.676Z,1.50
2023-03-19T17:30:51.855Z,1.57
2023-03-19T17:33:30.737Z,1.10
2023-03-19T17:35:58.641Z,1.10
2023-03-19T17:38:34.401Z,1.07
2023-03-19T17:41:02.149Z,3.63
2023-03-19T17:43:28.894Z,3.47
2023-03-19T17:45:55.860Z,2.00
2023-03-19T17:48:27.158Z,2.10
2023-03-19T17:51:00.985Z,2.73
2023-03-19T17:53:28.853Z,1.87
2023-03-19T17:55:55.690Z,1.70
2023-03-19T17:58:22.888Z,1.30
2023-03-19T18:00:51.283Z,2.00
2023-03-19T18:03:20.818Z,4.23
2023-03-19T18:05:50.219Z,20.20
2023-03-19T18:08:19.171Z,8.23
2023-03-19T18:10:46.160Z,5.77
2023-03-19T18:13:12.912Z,4.43
2023-03-19T18:15:42.113Z,2.90
2023-03-19T18:18:16.633Z,2.83
2023-03-19T18:20:43.719Z,2.40
2023-03-19T18:23:12.011Z,2.97
2023-03-19T18:25:38.939Z,1.97
2023-03-19T18:28:05.915Z,1.83
2023-03-19T18:30:35.206Z,1.60
2023-03-19T18:33:05.358Z,2.37
2023-03-19T18:35:39.245Z,1.90
2023-03-19T18:38:14.607Z,2.80
2023-03-19T18:40:41.686Z,4.27
2023-03-19T18:43:10.639Z,2.93
2023-03-19T18:45:39.294Z,2.67
2023-03-19T18:48:24.643Z,2.87
2023-03-19T18:50:51.959Z,1.80
2023-03-19T18:53:18.844Z,2.40
2023-03-19T18:55:47.081Z,1.90
2023-03-19T18:58:25.497Z,3.00
2023-03-19T19:00:53.034Z,1.90
2023-03-19T19:03:29.412Z,1.37
2023-03-19T19:05:56.285Z,1.10
2023-03-19T19:08:25.211Z,1.70
2023-03-19T19:10:55.204Z,1.93
2023-03-19T19:13:32.027Z,3.30
2023-03-19T19:15:58.897Z,3.90
2023-03-19T19:18:30.554Z,2.00
2023-03-19T19:20:58.418Z,3.07
2023-03-19T19:23:30.153Z,3.23
2023-03-19T19:25:57.112Z,3.43
2023-03-19T19:28:30.552Z,3.80
2023-03-19T19:30:59.739Z,4.57
2023-03-19T19:33:35.541Z,4.63
2023-03-19T19:36:03.045Z,4.13
2023-03-19T19:38:30.381Z,3.23
2023-03-19T19:40:59.968Z,3.27
2023-03-19T19:43:31.156Z,3.10
2023-03-19T19:45:59.005Z,2.80
2023-03-19T19:48:27.784Z,3.07
2023-03-19T19:50:56.093Z,4.70
2023-03-19T19:53:25.301Z,3.50
2023-03-19T19:55:53.414Z,4.67
2023-03-19T19:58:24.451Z,4.27
2023-03-19T20:01:02.914Z,4.50
2023-03-19T20:03:32.573Z,4.73
2023-03-19T20:06:00.350Z,3.77
2023-03-19T20:08:27.204Z,2.13
2023-03-19T20:10:54.565Z,2.40
2023-03-19T20:13:22.820Z,2.70
2023-03-19T20:15:50.350Z,2.47
2023-03-19T20:18:19.575Z,3.03
2023-03-19T20:20:46.415Z,4.17
2023-03-19T20:23:15.085Z,3.33
2023-03-19T20:25:42.545Z,3.80
2023-03-19T20:28:26.225Z,3.53
2023-03-19T20:30:54.144Z,2.57
2023-03-19T20:33:22.443Z,2.70
2023-03-19T20:35:49.526Z,2.67
2023-03-19T20:38:17.041Z,2.57
2023-03-19T20:40:45.325Z,2.60
2023-03-19T20:43:20.904Z,2.83
2023-03-19T20:45:47.652Z,2.70
2023-03-19T20:48:16.590Z,3.20
2023-03-19T20:50:44.206Z,2.97
2023-03-19T20:53:11.091Z,3.60
2023-03-19T20:55:39.693Z,6.23
2023-03-19T20:58:34.824Z,6.67
2023-03-19T21:01:02.706Z,4.93
2023-03-19T21:03:31.637Z,4.73
2023-03-19T21:06:03.617Z,4.33
2023-03-19T21:08:45.693Z,4.80
2023-03-19T21:11:17.884Z,5.03
2023-03-19T21:13:48.907Z,4.50
2023-03-19T21:16:20.825Z,3.83
2023-03-19T21:18:48.535Z,4.80
2023-03-19T21:21:17.534Z,7.03
2023-03-19T21:23:57.998Z,6.70
2023-03-19T21:26:24.884Z,5.93
2023-03-19T21:28:58.327Z,4.87
2023-03-19T21:31:26.041Z,4.53
2023-03-19T21:33:52.798Z,3.63
2023-03-19T21:36:19.613Z,2.47
2023-03-19T21:38:46.683Z,3.17
2023-03-19T21:41:26.038Z,3.50
2023-03-19T21:43:56.176Z,2.90
2023-03-19T21:46:27.043Z,2.30
2023-03-19T21:48:55.020Z,2.03
2023-03-19T21:51:23.582Z,1.93
2023-03-19T21:53:50.776Z,2.37
2023-03-19T21:56:32.351Z,2.47
2023-03-19T21:59:02.141Z,2.77
2023-03-19T22:01:29.161Z,2.97
2023-03-19T22:03:57.490Z,2.70
2023-03-19T22:06:24.985Z,3.00
2023-03-19T22:08:54.045Z,3.27
2023-03-19T22:11:32.484Z,3.17
2023-03-19T22:14:03.004Z,3.60
2023-03-19T22:16:31.785Z,3.77
2023-03-19T22:18:58.764Z,3.60
2023-03-19T22:21:25.614Z,4.13
2023-03-19T22:23:52.288Z,3.10
2023-03-19T22:26:27.428Z,3.50
2023-03-19T22:28:55.368Z,3.60
2023-03-19T22:31:22.358Z,3.23
2023-03-19T22:33:49.400Z,2.83
2023-03-19T22:36:16.261Z,3.57
2023-03-19T22:38:44.893Z,3.40
2023-03-19T22:41:28.979Z,3.37
2023-03-19T22:43:57.386Z,3.53
2023-03-19T22:46:25.222Z,3.63
2023-03-19T22:48:52.396Z,3.30
2023-03-19T22:51:23.812Z,3.53
2023-03-19T22:53:51.012Z,4.00
2023-03-19T22:56:19.031Z,4.93
2023-03-19T22:58:46.835Z,5.40
2023-03-19T23:01:39.725Z,5.23
2023-03-19T23:04:18.447Z,5.10
2023-03-19T23:06:45.239Z,5.70
2023-03-19T23:09:24.155Z,5.87
2023-03-19T23:11:51.650Z,6.33
2023-03-19T23:14:29.169Z,6.80
2023-03-19T23:19:31.107Z,7.90
2023-03-19T23:21:59.029Z,7.63
2023-03-19T23:24:26.540Z,6.73
2023-03-19T23:26:55.906Z,6.50
2023-03-19T23:29:26.942Z,6.57
2023-03-19T23:31:53.714Z,5.13
2023-03-19T23:34:21.932Z,4.50
2023-03-19T23:36:48.646Z,5.10
2023-03-19T23:39:16.382Z,5.10
2023-03-19T23:41:56.451Z,4.83
2023-03-19T23:44:23.457Z,4.30
2023-03-19T23:46:51.879Z,4.37
2023-03-19T23:49:30.201Z,4.23
2023-03-19T23:51:57.439Z,5.23
2023-03-19T23:54:31.718Z,4.97
2023-03-19T23:57:01.577Z,4.77
2023-03-19T23:59:32.871Z,4.77
